Terminal Aerodrome Forecast
Issued by NWS

Home | Current Version | Previous Version | Text Only | Print | Product List | Glossary On
Versions: 1 2 3 4 5 6 7 8 9 10 11 12 13 14 15 16 17 18 19 20 21 22 23 24 25 26 27 28 29 30 31 32 33 34
000
FTUS44 KOUN 302320
TAFCSM
TAF
KCSM 302320Z 3100/3124 03012G18KT P6SM SCT009 BKN025
      TEMPO 3100/3104 OVC009
     FM310600 01014KT P6SM SCT007 BKN015
      TEMPO 3106/3110 OVC007
     FM311500 01013KT P6SM BKN035=

USA.gov is the U.S. government's official web portal to all federal, state and local government web resources and services.